PWSweather.com
Personal Weather Stations
Station Observations
KTXROWLE6
Ravens Nest, Rowlett, TX 75089

Ravens NestRowlett, TX 75089

Lat: 32.93105, Lon: -96.57368

Elevation: 556

Station Type: Davis Vantage Pro2 6152

http://rowlett.ws

High Low Average
Temperature 89.7°F32.1°C 71.1°F21.7°C 77.8°F25.4°C
Dew Point 74.5°F23.6°C 56.6°F13.7°C 67.1°F19.5°C
Winds 8.2 mph 13.2 kmh Calm Calm 2.0 mph SSE3.2 kmh SSE
Wind Gusts 14.0 mph22.5 kmh -- 5.0 mph8.0 kmh
Humidity 95% 34% 73%
Pressure 29.81 in1009.5 mb 29.66 in1004.4 mb -
Precipitation 0.03 in0.8 mm - -
Hour Temp Dew Point Humidity Winds Wind Gusts Pressure Precip Precip Rate Daily Precip Total
12:00 AM 72.6°F22.6°C 68.5°F20.3°C 87% 2.3 mph SSW3.7 kmh SSW 5.0 mph8.0 kmh 29.80 in1009.1 mb 0.00 in0.0 mm 0.00 in0.0 mm 0.00 in0.0 mm
12:05 AM 72.6°F22.6°C 68.5°F20.3°C 87% 1.1 mph SSW1.8 kmh SSW 4.0 mph6.4 kmh 29.80 in1009.1 mb 0.00 in0.0 mm 0.00 in0.0 mm 0.00 in0.0 mm
12:10 AM 72.6°F22.6°C 68.5°F20.3°C 87% 2.1 mph SSW3.4 kmh SSW 5.0 mph8.0 kmh 29.80 in1009.1 mb 0.00 in0.0 mm 0.00 in0.0 mm 0.00 in0.0 mm
12:15 AM 72.6°F22.6°C 68.5°F20.3°C 87% 2.2 mph SSW3.5 kmh SSW 5.0 mph8.0 kmh 29.80 in1009.1 mb 0.00 in0.0 mm 0.00 in0.0 mm 0.00 in0.0 mm
12:20 AM 72.6°F22.6°C 68.5°F20.3°C 87% 1.9 mph SSW3.1 kmh SSW 5.0 mph8.0 kmh 29.80 in1009.1 mb 0.00 in0.0 mm 0.00 in0.0 mm 0.00 in0.0 mm
12:25 AM 72.5°F22.5°C 68.7°F20.4°C 88% 1.6 mph SSW2.6 kmh SSW 4.0 mph6.4 kmh 29.80 in1009.1 mb 0.00 in0.0 mm 0.00 in0.0 mm 0.00 in0.0 mm
12:30 AM 72.5°F22.5°C 68.7°F20.4°C 88% 0.5 mph SSW0.8 kmh SSW 4.0 mph6.4 kmh 29.81 in1009.5 mb 0.00 in0.0 mm 0.00 in0.0 mm 0.00 in0.0 mm
12:35 AM 72.5°F22.5°C 68.7°F20.4°C 88% 0.7 mph SSW1.1 kmh SSW 2.0 mph3.2 kmh 29.81 in1009.5 mb 0.00 in0.0 mm 0.00 in0.0 mm 0.00 in0.0 mm
12:40 AM 72.5°F22.5°C 68.7°F20.4°C 88% 1.0 mph WSW1.6 kmh WSW 2.0 mph3.2 kmh 29.80 in1009.1 mb 0.00 in0.0 mm 0.00 in0.0 mm 0.00 in0.0 mm
12:45 AM 72.4°F22.4°C 69.0°F20.6°C 89% 1.5 mph WSW2.4 kmh WSW 3.0 mph4.8 kmh 29.80 in1009.1 mb 0.00 in0.0 mm 0.00 in0.0 mm 0.00 in0.0 mm
12:50 AM 72.3°F22.4°C 69.2°F20.7°C 90% 0.8 mph WSW1.3 kmh WSW 3.0 mph4.8 kmh 29.79 in1008.8 mb 0.00 in0.0 mm 0.00 in0.0 mm 0.00 in0.0 mm
12:55 AM 72.2°F22.3°C 69.4°F20.8°C 91% 1.2 mph WSW1.9 kmh WSW 3.0 mph4.8 kmh 29.79 in1008.8 mb 0.00 in0.0 mm 0.00 in0.0 mm 0.00 in0.0 mm
01:00 AM 72.2°F22.3°C 69.7°F20.9°C 92% 0.6 mph WSW1.0 kmh WSW 2.0 mph3.2 kmh 29.79 in1008.8 mb 0.00 in0.0 mm 0.00 in0.0 mm 0.00 in0.0 mm
01:05 AM 72.1°F22.3°C 69.6°F20.9°C 92% 1.2 mph WSW1.9 kmh WSW 3.0 mph4.8 kmh 29.79 in1008.8 mb 0.00 in0.0 mm 0.00 in0.0 mm 0.00 in0.0 mm
01:10 AM 72.1°F22.3°C 70.0°F21.1°C 93% 0.6 mph WSW1.0 kmh WSW 3.0 mph4.8 kmh 29.79 in1008.8 mb 0.00 in0.0 mm 0.00 in0.0 mm 0.00 in0.0 mm
01:15 AM 72.1°F22.3°C 70.0°F21.1°C 93% 0.5 mph WSW0.8 kmh WSW 2.0 mph3.2 kmh 29.79 in1008.8 mb 0.00 in0.0 mm 0.00 in0.0 mm 0.00 in0.0 mm
01:20 AM 72.2°F22.3°C 70.1°F21.2°C 93% 1.4 mph WSW2.3 kmh WSW 2.0 mph3.2 kmh 29.79 in1008.8 mb 0.00 in0.0 mm 0.00 in0.0 mm 0.00 in0.0 mm
01:25 AM 72.1°F22.3°C 70.3°F21.3°C 94% 1.2 mph WSW1.9 kmh WSW 3.0 mph4.8 kmh 29.79 in1008.8 mb 0.00 in0.0 mm 0.00 in0.0 mm 0.00 in0.0 mm
01:30 AM 72.1°F22.3°C 70.3°F21.3°C 94% 0.3 mph WSW0.5 kmh WSW 3.0 mph4.8 kmh 29.79 in1008.8 mb 0.00 in0.0 mm 0.00 in0.0 mm 0.00 in0.0 mm
01:35 AM 72.1°F22.3°C 70.3°F21.3°C 94% 0.7 mph WSW1.1 kmh WSW 2.0 mph3.2 kmh 29.79 in1008.8 mb 0.00 in0.0 mm 0.00 in0.0 mm 0.00 in0.0 mm
01:40 AM 72.0°F22.2°C 70.2°F21.2°C 94% 0.6 mph WSW1.0 kmh WSW 2.0 mph3.2 kmh 29.79 in1008.8 mb 0.00 in0.0 mm 0.00 in0.0 mm 0.00 in0.0 mm
01:45 AM 72.0°F22.2°C 70.2°F21.2°C 94% 0.3 mph WSW0.5 kmh WSW 2.0 mph3.2 kmh 29.79 in1008.8 mb 0.00 in0.0 mm 0.00 in0.0 mm 0.00 in0.0 mm
01:50 AM 72.0°F22.2°C 70.2°F21.2°C 94% 0.4 mph WSW0.6 kmh WSW 2.0 mph3.2 kmh 29.79 in1008.8 mb 0.00 in0.0 mm 0.00 in0.0 mm 0.00 in0.0 mm
01:55 AM 72.0°F22.2°C 70.2°F21.2°C 94% 0.6 mph WSW1.0 kmh WSW 2.0 mph3.2 kmh 29.79 in1008.8 mb 0.00 in0.0 mm 0.00 in0.0 mm 0.00 in0.0 mm
02:00 AM 72.0°F22.2°C 70.2°F21.2°C 94% 0.1 mph WSW0.2 kmh WSW 2.0 mph3.2 kmh 29.79 in1008.8 mb 0.00 in0.0 mm 0.00 in0.0 mm 0.00 in0.0 mm
02:05 AM 72.1°F22.3°C 70.3°F21.3°C 94% 0.1 mph WSW0.2 kmh WSW 1.0 mph1.6 kmh 29.79 in1008.8 mb 0.00 in0.0 mm 0.00 in0.0 mm 0.00 in0.0 mm
02:10 AM 72.1°F22.3°C 70.3°F21.3°C 94% Calm Calm 1.0 mph1.6 kmh 29.78 in1008.5 mb 0.00 in0.0 mm 0.00 in0.0 mm 0.00 in0.0 mm
02:15 AM 72.0°F22.2°C 70.2°F21.2°C 94% 0.1 mph WSW0.2 kmh WSW 1.0 mph1.6 kmh 29.78 in1008.5 mb 0.00 in0.0 mm 0.00 in0.0 mm 0.00 in0.0 mm
02:20 AM 72.0°F22.2°C 70.5°F21.4°C 95% Calm Calm 1.0 mph1.6 kmh 29.78 in1008.5 mb 0.00 in0.0 mm 0.00 in0.0 mm 0.00 in0.0 mm
02:25 AM 72.1°F22.3°C 70.6°F21.4°C 95% Calm Calm -- 29.78 in1008.5 mb 0.00 in0.0 mm 0.00 in0.0 mm 0.00 in0.0 mm
02:30 AM 72.1°F22.3°C 70.6°F21.4°C 95% 0.5 mph WSW0.8 kmh WSW 2.0 mph3.2 kmh 29.78 in1008.5 mb 0.00 in0.0 mm 0.00 in0.0 mm 0.00 in0.0 mm
02:35 AM 72.1°F22.3°C 70.6°F21.4°C 95% 0.3 mph WSW0.5 kmh WSW 2.0 mph3.2 kmh 29.78 in1008.5 mb 0.00 in0.0 mm 0.00 in0.0 mm 0.00 in0.0 mm
02:40 AM 72.1°F22.3°C 70.6°F21.4°C 95% 0.5 mph WSW0.8 kmh WSW 2.0 mph3.2 kmh 29.78 in1008.5 mb 0.00 in0.0 mm 0.00 in0.0 mm 0.00 in0.0 mm
02:45 AM 72.2°F22.3°C 70.7°F21.5°C 95% 0.5 mph WSW0.8 kmh WSW 2.0 mph3.2 kmh 29.78 in1008.5 mb 0.01 in0.3 mm 0.12 in3.0 mm 0.01 in0.3 mm
02:50 AM 72.1°F22.3°C 70.6°F21.4°C 95% 0.8 mph WSW1.3 kmh WSW 2.0 mph3.2 kmh 29.77 in1008.1 mb 0.01 in0.3 mm 0.00 in0.0 mm 0.01 in0.3 mm
02:55 AM 72.1°F22.3°C 70.6°F21.4°C 95% 0.1 mph WSW0.2 kmh WSW 2.0 mph3.2 kmh 29.77 in1008.1 mb 0.01 in0.3 mm 0.00 in0.0 mm 0.01 in0.3 mm
03:00 AM 72.1°F22.3°C 70.6°F21.4°C 95% 0.4 mph WSW0.6 kmh WSW 2.0 mph3.2 kmh 29.77 in1008.1 mb 0.01 in0.3 mm 0.00 in0.0 mm 0.01 in0.3 mm
03:05 AM 72.2°F22.3°C 70.7°F21.5°C 95% 0.4 mph WSW0.6 kmh WSW 2.0 mph3.2 kmh 29.77 in1008.1 mb 0.01 in0.3 mm 0.00 in0.0 mm 0.01 in0.3 mm
03:10 AM 72.1°F22.3°C 70.6°F21.4°C 95% 0.2 mph WSW0.3 kmh WSW 2.0 mph3.2 kmh 29.77 in1008.1 mb 0.01 in0.3 mm 0.00 in0.0 mm 0.01 in0.3 mm
03:15 AM 72.2°F22.3°C 70.7°F21.5°C 95% 0.7 mph WSW1.1 kmh WSW 2.0 mph3.2 kmh 29.77 in1008.1 mb 0.01 in0.3 mm 0.00 in0.0 mm 0.01 in0.3 mm
03:20 AM 72.3°F22.4°C 70.8°F21.6°C 95% 1.2 mph SW1.9 kmh SW 3.0 mph4.8 kmh 29.76 in1007.8 mb 0.01 in0.3 mm 0.00 in0.0 mm 0.01 in0.3 mm
03:25 AM 72.3°F22.4°C 70.8°F21.6°C 95% 0.5 mph SW0.8 kmh SW 3.0 mph4.8 kmh 29.76 in1007.8 mb 0.01 in0.3 mm 0.00 in0.0 mm 0.01 in0.3 mm
03:30 AM 72.3°F22.4°C 70.8°F21.6°C 95% 0.3 mph SW0.5 kmh SW 2.0 mph3.2 kmh 29.76 in1007.8 mb 0.01 in0.3 mm 0.00 in0.0 mm 0.01 in0.3 mm
03:35 AM 72.3°F22.4°C 70.8°F21.6°C 95% 1.4 mph SW2.3 kmh SW 3.0 mph4.8 kmh 29.76 in1007.8 mb 0.01 in0.3 mm 0.00 in0.0 mm 0.01 in0.3 mm
03:40 AM 72.2°F22.3°C 70.7°F21.5°C 95% 0.7 mph SW1.1 kmh SW 3.0 mph4.8 kmh 29.75 in1007.5 mb 0.01 in0.3 mm 0.00 in0.0 mm 0.01 in0.3 mm
03:45 AM 72.2°F22.3°C 70.7°F21.5°C 95% 0.7 mph SW1.1 kmh SW 3.0 mph4.8 kmh 29.75 in1007.5 mb 0.00 in0.0 mm 0.00 in0.0 mm 0.01 in0.3 mm
03:50 AM 72.2°F22.3°C 70.7°F21.5°C 95% 1.5 mph SW2.4 kmh SW 3.0 mph4.8 kmh 29.75 in1007.5 mb 0.00 in0.0 mm 0.00 in0.0 mm 0.01 in0.3 mm
03:55 AM 72.2°F22.3°C 70.7°F21.5°C 95% 1.7 mph SW2.7 kmh SW 5.0 mph8.0 kmh 29.75 in1007.5 mb 0.00 in0.0 mm 0.00 in0.0 mm 0.01 in0.3 mm
04:00 AM 72.0°F22.2°C 70.5°F21.4°C 95% 1.8 mph WSW2.9 kmh WSW 5.0 mph8.0 kmh 29.75 in1007.5 mb 0.00 in0.0 mm 0.00 in0.0 mm 0.01 in0.3 mm
04:05 AM 71.5°F21.9°C 69.7°F20.9°C 94% 1.9 mph W3.1 kmh W 4.0 mph6.4 kmh 29.74 in1007.1 mb 0.00 in0.0 mm 0.00 in0.0 mm 0.01 in0.3 mm
04:10 AM 71.2°F21.8°C 69.4°F20.8°C 94% 1.2 mph W1.9 kmh W 4.0 mph6.4 kmh 29.74 in1007.1 mb 0.00 in0.0 mm 0.00 in0.0 mm 0.01 in0.3 mm
04:15 AM 71.2°F21.8°C 69.4°F20.8°C 94% 0.8 mph W1.3 kmh W 3.0 mph4.8 kmh 29.73 in1006.8 mb 0.00 in0.0 mm 0.00 in0.0 mm 0.01 in0.3 mm
04:20 AM 71.3°F21.8°C 69.5°F20.8°C 94% 0.2 mph W0.3 kmh W 3.0 mph4.8 kmh 29.73 in1006.8 mb 0.00 in0.0 mm 0.00 in0.0 mm 0.01 in0.3 mm
04:25 AM 71.3°F21.8°C 69.5°F20.8°C 94% Calm Calm 2.0 mph3.2 kmh 29.73 in1006.8 mb 0.00 in0.0 mm 0.00 in0.0 mm 0.01 in0.3 mm
04:30 AM 71.3°F21.8°C 69.5°F20.8°C 94% 1.3 mph WSW2.1 kmh WSW 3.0 mph4.8 kmh 29.72 in1006.4 mb 0.00 in0.0 mm 0.00 in0.0 mm 0.01 in0.3 mm
04:35 AM 71.1°F21.7°C 69.3°F20.7°C 94% 1.5 mph SW2.4 kmh SW 3.0 mph4.8 kmh 29.72 in1006.4 mb 0.00 in0.0 mm 0.00 in0.0 mm 0.01 in0.3 mm
04:40 AM 71.1°F21.7°C 69.3°F20.7°C 94% 0.6 mph SW1.0 kmh SW 3.0 mph4.8 kmh 29.72 in1006.4 mb 0.00 in0.0 mm 0.00 in0.0 mm 0.01 in0.3 mm
04:45 AM 71.1°F21.7°C 69.3°F20.7°C 94% 0.4 mph SW0.6 kmh SW 2.0 mph3.2 kmh 29.72 in1006.4 mb 0.00 in0.0 mm 0.00 in0.0 mm 0.01 in0.3 mm
04:50 AM 71.2°F21.8°C 69.4°F20.8°C 94% Calm Calm 2.0 mph3.2 kmh 29.71 in1006.1 mb 0.00 in0.0 mm 0.00 in0.0 mm 0.01 in0.3 mm
04:55 AM 71.3°F21.8°C 69.5°F20.8°C 94% 0.2 mph SW0.3 kmh SW 2.0 mph3.2 kmh 29.71 in1006.1 mb 0.00 in0.0 mm 0.00 in0.0 mm 0.01 in0.3 mm
05:00 AM 71.6°F22.0°C 69.8°F21.0°C 94% 0.9 mph SW1.4 kmh SW 3.0 mph4.8 kmh 29.71 in1006.1 mb 0.00 in0.0 mm 0.00 in0.0 mm 0.01 in0.3 mm
05:05 AM 72.1°F22.3°C 70.3°F21.3°C 94% 1.9 mph SSW3.1 kmh SSW 5.0 mph8.0 kmh 29.71 in1006.1 mb 0.00 in0.0 mm 0.00 in0.0 mm 0.01 in0.3 mm
05:10 AM 72.5°F22.5°C 70.7°F21.5°C 94% 2.5 mph SW4.0 kmh SW 6.0 mph9.7 kmh 29.71 in1006.1 mb 0.00 in0.0 mm 0.00 in0.0 mm 0.01 in0.3 mm
05:15 AM 72.6°F22.6°C 70.8°F21.6°C 94% 0.3 mph SW0.5 kmh SW 6.0 mph9.7 kmh 29.71 in1006.1 mb 0.00 in0.0 mm 0.00 in0.0 mm 0.01 in0.3 mm
05:20 AM 72.5°F22.5°C 70.7°F21.5°C 94% Calm Calm 2.0 mph3.2 kmh 29.71 in1006.1 mb 0.00 in0.0 mm 0.00 in0.0 mm 0.01 in0.3 mm
05:25 AM 72.5°F22.5°C 70.7°F21.5°C 94% 0.3 mph SW0.5 kmh SW 3.0 mph4.8 kmh 29.71 in1006.1 mb 0.00 in0.0 mm 0.00 in0.0 mm 0.01 in0.3 mm
05:30 AM 72.5°F22.5°C 70.7°F21.5°C 94% 0.6 mph SW1.0 kmh SW 4.0 mph6.4 kmh 29.72 in1006.4 mb 0.00 in0.0 mm 0.00 in0.0 mm 0.01 in0.3 mm
05:35 AM 72.4°F22.4°C 70.6°F21.4°C 94% Calm Calm 4.0 mph6.4 kmh 29.71 in1006.1 mb 0.00 in0.0 mm 0.00 in0.0 mm 0.01 in0.3 mm
05:40 AM 72.5°F22.5°C 71.0°F21.7°C 95% 0.2 mph S0.3 kmh S 1.0 mph1.6 kmh 29.72 in1006.4 mb 0.00 in0.0 mm 0.00 in0.0 mm 0.01 in0.3 mm
05:45 AM 72.5°F22.5°C 71.0°F21.7°C 95% 2.2 mph ENE3.5 kmh ENE 3.0 mph4.8 kmh 29.73 in1006.8 mb 0.00 in0.0 mm 0.00 in0.0 mm 0.01 in0.3 mm
05:50 AM 72.4°F22.4°C 70.6°F21.4°C 94% 2.1 mph NE3.4 kmh NE 4.0 mph6.4 kmh 29.73 in1006.8 mb 0.00 in0.0 mm 0.00 in0.0 mm 0.01 in0.3 mm
05:55 AM 71.8°F22.1°C 70.0°F21.1°C 94% 2.4 mph NE3.9 kmh NE 5.0 mph8.0 kmh 29.73 in1006.8 mb 0.00 in0.0 mm 0.00 in0.0 mm 0.01 in0.3 mm
06:00 AM 71.5°F21.9°C 69.7°F20.9°C 94% 2.2 mph NE3.5 kmh NE 5.0 mph8.0 kmh 29.73 in1006.8 mb 0.00 in0.0 mm 0.00 in0.0 mm 0.01 in0.3 mm
06:05 AM 71.4°F21.9°C 69.6°F20.9°C 94% 2.9 mph NNE4.7 kmh NNE 5.0 mph8.0 kmh 29.73 in1006.8 mb 0.00 in0.0 mm 0.00 in0.0 mm 0.01 in0.3 mm
06:10 AM 71.3°F21.8°C 69.5°F20.8°C 94% 3.2 mph NNE5.1 kmh NNE 6.0 mph9.7 kmh 29.73 in1006.8 mb 0.00 in0.0 mm 0.00 in0.0 mm 0.01 in0.3 mm
06:15 AM 71.3°F21.8°C 69.5°F20.8°C 94% 2.9 mph NNE4.7 kmh NNE 6.0 mph9.7 kmh 29.74 in1007.1 mb 0.00 in0.0 mm 0.00 in0.0 mm 0.01 in0.3 mm
06:20 AM 71.5°F21.9°C 69.7°F20.9°C 94% 2.5 mph NNE4.0 kmh NNE 5.0 mph8.0 kmh 29.74 in1007.1 mb 0.00 in0.0 mm 0.00 in0.0 mm 0.01 in0.3 mm
06:25 AM 71.6°F22.0°C 69.8°F21.0°C 94% 1.7 mph NNE2.7 kmh NNE 4.0 mph6.4 kmh 29.73 in1006.8 mb 0.00 in0.0 mm 0.00 in0.0 mm 0.01 in0.3 mm
06:30 AM 71.6°F22.0°C 69.8°F21.0°C 94% 1.8 mph NNE2.9 kmh NNE 4.0 mph6.4 kmh 29.74 in1007.1 mb 0.00 in0.0 mm 0.00 in0.0 mm 0.01 in0.3 mm
06:35 AM 71.8°F22.1°C 70.0°F21.1°C 94% 0.9 mph NNE1.4 kmh NNE 3.0 mph4.8 kmh 29.74 in1007.1 mb 0.00 in0.0 mm 0.00 in0.0 mm 0.01 in0.3 mm
06:40 AM 72.0°F22.2°C 70.2°F21.2°C 94% 1.2 mph NNE1.9 kmh NNE 3.0 mph4.8 kmh 29.75 in1007.5 mb 0.00 in0.0 mm 0.00 in0.0 mm 0.01 in0.3 mm
06:45 AM 72.0°F22.2°C 70.2°F21.2°C 94% 1.8 mph NNE2.9 kmh NNE 4.0 mph6.4 kmh 29.75 in1007.5 mb 0.00 in0.0 mm 0.00 in0.0 mm 0.01 in0.3 mm
06:50 AM 72.0°F22.2°C 69.9°F21.1°C 93% 0.9 mph N1.4 kmh N 4.0 mph6.4 kmh 29.75 in1007.5 mb 0.00 in0.0 mm 0.00 in0.0 mm 0.01 in0.3 mm
06:55 AM 72.1°F22.3°C 70.0°F21.1°C 93% 2.2 mph N3.5 kmh N 4.0 mph6.4 kmh 29.75 in1007.5 mb 0.00 in0.0 mm 0.00 in0.0 mm 0.01 in0.3 mm
07:00 AM 72.1°F22.3°C 70.3°F21.3°C 94% 2.2 mph N3.5 kmh N 4.0 mph6.4 kmh 29.75 in1007.5 mb 0.00 in0.0 mm 0.00 in0.0 mm 0.01 in0.3 mm
07:05 AM 72.1°F22.3°C 70.0°F21.1°C 93% 2.7 mph N4.3 kmh N 5.0 mph8.0 kmh 29.76 in1007.8 mb 0.00 in0.0 mm 0.00 in0.0 mm 0.01 in0.3 mm
07:10 AM 72.3°F22.4°C 70.2°F21.2°C 93% 1.7 mph N2.7 kmh N 5.0 mph8.0 kmh 29.75 in1007.5 mb 0.00 in0.0 mm 0.00 in0.0 mm 0.01 in0.3 mm
07:15 AM 72.2°F22.3°C 70.1°F21.2°C 93% 2.3 mph NNE3.7 kmh NNE 4.0 mph6.4 kmh 29.75 in1007.5 mb 0.00 in0.0 mm 0.00 in0.0 mm 0.01 in0.3 mm
07:20 AM 72.1°F22.3°C 70.0°F21.1°C 93% 3.9 mph NNE6.3 kmh NNE 8.0 mph12.9 kmh 29.76 in1007.8 mb 0.00 in0.0 mm 0.00 in0.0 mm 0.01 in0.3 mm
07:25 AM 72.0°F22.2°C 69.5°F20.8°C 92% 2.8 mph NE4.5 kmh NE 8.0 mph12.9 kmh 29.75 in1007.5 mb 0.00 in0.0 mm 0.00 in0.0 mm 0.01 in0.3 mm
07:30 AM 72.0°F22.2°C 69.5°F20.8°C 92% 1.9 mph NE3.1 kmh NE 6.0 mph9.7 kmh 29.75 in1007.5 mb 0.00 in0.0 mm 0.00 in0.0 mm 0.01 in0.3 mm
07:35 AM 72.0°F22.2°C 69.5°F20.8°C 92% 2.4 mph NE3.9 kmh NE 5.0 mph8.0 kmh 29.75 in1007.5 mb 0.00 in0.0 mm 0.00 in0.0 mm 0.01 in0.3 mm
07:40 AM 72.1°F22.3°C 69.6°F20.9°C 92% 2.8 mph NE4.5 kmh NE 5.0 mph8.0 kmh 29.75 in1007.5 mb 0.00 in0.0 mm 0.00 in0.0 mm 0.01 in0.3 mm
07:45 AM 72.1°F22.3°C 69.6°F20.9°C 92% 2.9 mph NE4.7 kmh NE 5.0 mph8.0 kmh 29.75 in1007.5 mb 0.00 in0.0 mm 0.00 in0.0 mm 0.01 in0.3 mm
07:50 AM 72.2°F22.3°C 69.7°F20.9°C 92% 2.5 mph N4.0 kmh N 5.0 mph8.0 kmh 29.76 in1007.8 mb 0.00 in0.0 mm 0.00 in0.0 mm 0.01 in0.3 mm
07:55 AM 72.1°F22.3°C 69.6°F20.9°C 92% 3.6 mph N5.8 kmh N 6.0 mph9.7 kmh 29.76 in1007.8 mb 0.00 in0.0 mm 0.00 in0.0 mm 0.01 in0.3 mm
08:00 AM 72.0°F22.2°C 69.5°F20.8°C 92% 3.0 mph NNE4.8 kmh NNE 6.0 mph9.7 kmh 29.76 in1007.8 mb 0.00 in0.0 mm 0.00 in0.0 mm 0.01 in0.3 mm
08:05 AM 72.2°F22.3°C 69.7°F20.9°C 92% 2.2 mph NE3.5 kmh NE 6.0 mph9.7 kmh 29.76 in1007.8 mb 0.00 in0.0 mm 0.00 in0.0 mm 0.01 in0.3 mm
08:10 AM 72.5°F22.5°C 70.0°F21.1°C 92% 1.8 mph NE2.9 kmh NE 4.0 mph6.4 kmh 29.76 in1007.8 mb 0.00 in0.0 mm 0.00 in0.0 mm 0.01 in0.3 mm
08:15 AM 72.6°F22.6°C 69.8°F21.0°C 91% 2.9 mph NE4.7 kmh NE 4.0 mph6.4 kmh 29.77 in1008.1 mb 0.00 in0.0 mm 0.00 in0.0 mm 0.01 in0.3 mm
08:20 AM 72.9°F22.7°C 70.1°F21.2°C 91% 2.6 mph N4.2 kmh N 5.0 mph8.0 kmh 29.77 in1008.1 mb 0.00 in0.0 mm 0.00 in0.0 mm 0.01 in0.3 mm
08:25 AM 73.2°F22.9°C 70.1°F21.2°C 90% 2.3 mph N3.7 kmh N 5.0 mph8.0 kmh 29.77 in1008.1 mb 0.00 in0.0 mm 0.00 in0.0 mm 0.01 in0.3 mm
08:30 AM 73.4°F23.0°C 70.3°F21.3°C 90% 2.1 mph N3.4 kmh N 5.0 mph8.0 kmh 29.77 in1008.1 mb 0.00 in0.0 mm 0.00 in0.0 mm 0.01 in0.3 mm
08:35 AM 73.8°F23.2°C 70.7°F21.5°C 90% 2.6 mph NE4.2 kmh NE 5.0 mph8.0 kmh 29.77 in1008.1 mb 0.00 in0.0 mm 0.00 in0.0 mm 0.01 in0.3 mm
08:40 AM 73.9°F23.3°C 70.4°F21.3°C 89% 3.2 mph NNE5.1 kmh NNE 6.0 mph9.7 kmh 29.77 in1008.1 mb 0.00 in0.0 mm 0.00 in0.0 mm 0.01 in0.3 mm
08:45 AM 74.0°F23.3°C 70.2°F21.2°C 88% 3.9 mph N6.3 kmh N 7.0 mph11.3 kmh 29.77 in1008.1 mb 0.00 in0.0 mm 0.00 in0.0 mm 0.01 in0.3 mm
08:50 AM 73.9°F23.3°C 70.4°F21.3°C 89% 3.9 mph N6.3 kmh N 7.0 mph11.3 kmh 29.77 in1008.1 mb 0.00 in0.0 mm 0.00 in0.0 mm 0.01 in0.3 mm
08:55 AM 73.8°F23.2°C 70.3°F21.3°C 89% 2.9 mph NE4.7 kmh NE 7.0 mph11.3 kmh 29.78 in1008.5 mb 0.00 in0.0 mm 0.00 in0.0 mm 0.01 in0.3 mm
09:00 AM 74.0°F23.3°C 70.5°F21.4°C 89% 2.4 mph NE3.9 kmh NE 5.0 mph8.0 kmh 29.78 in1008.5 mb 0.00 in0.0 mm 0.00 in0.0 mm 0.01 in0.3 mm
09:05 AM 74.5°F23.6°C 70.7°F21.5°C 88% 1.8 mph NE2.9 kmh NE 4.0 mph6.4 kmh 29.78 in1008.5 mb 0.00 in0.0 mm 0.00 in0.0 mm 0.01 in0.3 mm
09:10 AM 75.0°F23.9°C 71.2°F21.8°C 88% 3.1 mph NE5.0 kmh NE 5.0 mph8.0 kmh 29.78 in1008.5 mb 0.00 in0.0 mm 0.00 in0.0 mm 0.01 in0.3 mm
09:15 AM 74.6°F23.7°C 70.5°F21.4°C 87% 2.8 mph NE4.5 kmh NE 5.0 mph8.0 kmh 29.78 in1008.5 mb 0.00 in0.0 mm 0.00 in0.0 mm 0.01 in0.3 mm
09:20 AM 74.4°F23.6°C 70.6°F21.4°C 88% 2.4 mph NE3.9 kmh NE 5.0 mph8.0 kmh 29.78 in1008.5 mb 0.00 in0.0 mm 0.00 in0.0 mm 0.01 in0.3 mm
09:25 AM 74.8°F23.8°C 71.0°F21.7°C 88% 2.5 mph NE4.0 kmh NE 4.0 mph6.4 kmh 29.78 in1008.5 mb 0.00 in0.0 mm 0.00 in0.0 mm 0.01 in0.3 mm
09:30 AM 75.4°F24.1°C 71.6°F22.0°C 88% 0.9 mph NE1.4 kmh NE 4.0 mph6.4 kmh 29.78 in1008.5 mb 0.00 in0.0 mm 0.00 in0.0 mm 0.01 in0.3 mm
09:35 AM 76.0°F24.4°C 71.5°F21.9°C 86% 2.0 mph NE3.2 kmh NE 5.0 mph8.0 kmh 29.78 in1008.5 mb 0.00 in0.0 mm 0.00 in0.0 mm 0.01 in0.3 mm
09:40 AM 75.5°F24.2°C 71.7°F22.1°C 88% 1.5 mph NE2.4 kmh NE 5.0 mph8.0 kmh 29.77 in1008.1 mb 0.00 in0.0 mm 0.00 in0.0 mm 0.01 in0.3 mm
09:45 AM 76.1°F24.5°C 71.9°F22.2°C 87% 0.9 mph E1.4 kmh E 3.0 mph4.8 kmh 29.78 in1008.5 mb 0.00 in0.0 mm 0.00 in0.0 mm 0.01 in0.3 mm
09:50 AM 76.7°F24.8°C 71.8°F22.1°C 85% 0.5 mph E0.8 kmh E 3.0 mph4.8 kmh 29.78 in1008.5 mb 0.00 in0.0 mm 0.00 in0.0 mm 0.01 in0.3 mm
09:55 AM 77.1°F25.1°C 72.2°F22.3°C 85% 0.7 mph SE1.1 kmh SE 4.0 mph6.4 kmh 29.78 in1008.5 mb 0.00 in0.0 mm 0.00 in0.0 mm 0.01 in0.3 mm
10:00 AM 76.9°F24.9°C 71.7°F22.1°C 84% 2.1 mph SSW3.4 kmh SSW 4.0 mph6.4 kmh 29.78 in1008.5 mb 0.00 in0.0 mm 0.00 in0.0 mm 0.01 in0.3 mm
10:05 AM 77.6°F25.3°C 72.0°F22.2°C 83% 1.0 mph SSW1.6 kmh SSW 4.0 mph6.4 kmh 29.77 in1008.1 mb 0.00 in0.0 mm 0.00 in0.0 mm 0.01 in0.3 mm
10:10 AM 77.8°F25.4°C 71.9°F22.2°C 82% 0.8 mph S1.3 kmh S 4.0 mph6.4 kmh 29.78 in1008.5 mb 0.00 in0.0 mm 0.00 in0.0 mm 0.01 in0.3 mm
10:15 AM 77.7°F25.4°C 72.1°F22.3°C 83% 0.7 mph SSE1.1 kmh SSE 3.0 mph4.8 kmh 29.77 in1008.1 mb 0.00 in0.0 mm 0.00 in0.0 mm 0.01 in0.3 mm
10:20 AM 77.7°F25.4°C 71.8°F22.1°C 82% 2.2 mph S3.5 kmh S 5.0 mph8.0 kmh 29.77 in1008.1 mb 0.00 in0.0 mm 0.00 in0.0 mm 0.01 in0.3 mm
10:25 AM 78.3°F25.7°C 72.0°F22.2°C 81% 1.0 mph S1.6 kmh S 5.0 mph8.0 kmh 29.77 in1008.1 mb 0.00 in0.0 mm 0.00 in0.0 mm 0.01 in0.3 mm
10:30 AM 79.8°F26.6°C 73.8°F23.2°C 82% 1.7 mph E2.7 kmh E 3.0 mph4.8 kmh 29.77 in1008.1 mb 0.00 in0.0 mm 0.00 in0.0 mm 0.01 in0.3 mm
10:35 AM 79.6°F26.4°C 73.2°F22.9°C 81% 1.1 mph ENE1.8 kmh ENE 3.0 mph4.8 kmh 29.77 in1008.1 mb 0.00 in0.0 mm 0.00 in0.0 mm 0.01 in0.3 mm
10:40 AM 78.9°F26.1°C 72.2°F22.3°C 80% 0.9 mph E1.4 kmh E 3.0 mph4.8 kmh 29.77 in1008.1 mb 0.00 in0.0 mm 0.00 in0.0 mm 0.01 in0.3 mm
10:45 AM 78.3°F25.7°C 71.6°F22.0°C 80% 0.7 mph ESE1.1 kmh ESE 3.0 mph4.8 kmh 29.77 in1008.1 mb 0.00 in0.0 mm 0.00 in0.0 mm 0.01 in0.3 mm
10:50 AM 78.7°F25.9°C 72.0°F22.2°C 80% 1.3 mph SE2.1 kmh SE 3.0 mph4.8 kmh 29.78 in1008.5 mb 0.00 in0.0 mm 0.00 in0.0 mm 0.01 in0.3 mm
10:55 AM 79.8°F26.6°C 72.7°F22.6°C 79% 1.9 mph SE3.1 kmh SE 6.0 mph9.7 kmh 29.78 in1008.5 mb 0.00 in0.0 mm 0.00 in0.0 mm 0.01 in0.3 mm
11:00 AM 80.2°F26.8°C 72.3°F22.4°C 77% 2.2 mph SW3.5 kmh SW 6.0 mph9.7 kmh 29.78 in1008.5 mb 0.00 in0.0 mm 0.00 in0.0 mm 0.01 in0.3 mm
11:05 AM 80.9°F27.2°C 72.6°F22.6°C 76% 2.2 mph S3.5 kmh S 7.0 mph11.3 kmh 29.77 in1008.1 mb 0.00 in0.0 mm 0.00 in0.0 mm 0.01 in0.3 mm
11:10 AM 80.5°F26.9°C 73.0°F22.8°C 78% 2.4 mph SSW3.9 kmh SSW 7.0 mph11.3 kmh 29.77 in1008.1 mb 0.00 in0.0 mm 0.00 in0.0 mm 0.01 in0.3 mm
11:15 AM 80.8°F27.1°C 72.5°F22.5°C 76% 0.6 mph SSW1.0 kmh SSW 5.0 mph8.0 kmh 29.77 in1008.1 mb 0.00 in0.0 mm 0.00 in0.0 mm 0.01 in0.3 mm
11:20 AM 80.4°F26.9°C 72.1°F22.3°C 76% 1.0 mph SW1.6 kmh SW 3.0 mph4.8 kmh 29.77 in1008.1 mb 0.00 in0.0 mm 0.00 in0.0 mm 0.01 in0.3 mm
11:25 AM 81.7°F27.6°C 73.8°F23.2°C 77% 2.8 mph S4.5 kmh S 6.0 mph9.7 kmh 29.76 in1007.8 mb 0.00 in0.0 mm 0.00 in0.0 mm 0.01 in0.3 mm
11:30 AM 81.2°F27.3°C 73.3°F22.9°C 77% 3.8 mph SSW6.1 kmh SSW 7.0 mph11.3 kmh 29.77 in1008.1 mb 0.00 in0.0 mm 0.00 in0.0 mm 0.01 in0.3 mm
11:35 AM 81.5°F27.5°C 73.2°F22.9°C 76% 1.9 mph SSW3.1 kmh SSW 7.0 mph11.3 kmh 29.76 in1007.8 mb 0.00 in0.0 mm 0.00 in0.0 mm 0.01 in0.3 mm
11:40 AM 81.6°F27.6°C 72.9°F22.7°C 75% 1.5 mph SW2.4 kmh SW 6.0 mph9.7 kmh 29.76 in1007.8 mb 0.00 in0.0 mm 0.00 in0.0 mm 0.01 in0.3 mm
11:45 AM 82.3°F27.9°C 74.3°F23.5°C 77% 1.3 mph S2.1 kmh S 5.0 mph8.0 kmh 29.76 in1007.8 mb 0.00 in0.0 mm 0.00 in0.0 mm 0.01 in0.3 mm
11:50 AM 81.4°F27.4°C 73.1°F22.8°C 76% 4.4 mph SSW7.1 kmh SSW 8.0 mph12.9 kmh 29.76 in1007.8 mb 0.00 in0.0 mm 0.00 in0.0 mm 0.01 in0.3 mm
11:55 AM 81.8°F27.7°C 73.5°F23.1°C 76% 3.0 mph SSW4.8 kmh SSW 8.0 mph12.9 kmh 29.76 in1007.8 mb 0.00 in0.0 mm 0.00 in0.0 mm 0.01 in0.3 mm
12:00 PM 81.4°F27.4°C 73.1°F22.8°C 76% 3.1 mph SW5.0 kmh SW 8.0 mph12.9 kmh 29.76 in1007.8 mb 0.00 in0.0 mm 0.00 in0.0 mm 0.01 in0.3 mm
12:05 PM 82.3°F27.9°C 73.6°F23.1°C 75% 2.6 mph SW4.2 kmh SW 8.0 mph12.9 kmh 29.76 in1007.8 mb 0.01 in0.3 mm 0.12 in3.0 mm 0.02 in0.5 mm
12:10 PM 82.3°F27.9°C 74.0°F23.3°C 76% 3.8 mph SSW6.1 kmh SSW 9.0 mph14.5 kmh 29.75 in1007.5 mb 0.01 in0.3 mm 0.00 in0.0 mm 0.02 in0.5 mm
12:15 PM 82.1°F27.8°C 73.8°F23.2°C 76% 1.3 mph S2.1 kmh S 9.0 mph14.5 kmh 29.75 in1007.5 mb 0.01 in0.3 mm 0.00 in0.0 mm 0.02 in0.5 mm
12:20 PM 82.0°F27.8°C 73.3°F22.9°C 75% 0.5 mph S0.8 kmh S 5.0 mph8.0 kmh 29.75 in1007.5 mb 0.01 in0.3 mm 0.00 in0.0 mm 0.02 in0.5 mm
12:25 PM 82.9°F28.3°C 74.5°F23.6°C 76% 2.8 mph SSW4.5 kmh SSW 6.0 mph9.7 kmh 29.75 in1007.5 mb 0.01 in0.3 mm 0.00 in0.0 mm 0.02 in0.5 mm
12:30 PM 83.2°F28.4°C 73.6°F23.1°C 73% 2.2 mph SSW3.5 kmh SSW 6.0 mph9.7 kmh 29.75 in1007.5 mb 0.01 in0.3 mm 0.00 in0.0 mm 0.02 in0.5 mm
12:35 PM 84.0°F28.9°C 74.4°F23.6°C 73% 1.8 mph SSW2.9 kmh SSW 6.0 mph9.7 kmh 29.75 in1007.5 mb 0.01 in0.3 mm 0.00 in0.0 mm 0.02 in0.5 mm
12:40 PM 83.9°F28.8°C 73.9°F23.3°C 72% 2.3 mph S3.7 kmh S 7.0 mph11.3 kmh 29.75 in1007.5 mb 0.01 in0.3 mm 0.00 in0.0 mm 0.02 in0.5 mm
12:45 PM 83.8°F28.8°C 73.8°F23.2°C 72% 3.3 mph SSW5.3 kmh SSW 7.0 mph11.3 kmh 29.74 in1007.1 mb 0.01 in0.3 mm 0.00 in0.0 mm 0.02 in0.5 mm
12:50 PM 83.7°F28.7°C 73.7°F23.2°C 72% 4.5 mph SSW7.2 kmh SSW 8.0 mph12.9 kmh 29.74 in1007.1 mb 0.01 in0.3 mm 0.00 in0.0 mm 0.02 in0.5 mm
12:55 PM 83.7°F28.7°C 73.7°F23.2°C 72% 1.7 mph S2.7 kmh S 8.0 mph12.9 kmh 29.74 in1007.1 mb 0.01 in0.3 mm 0.00 in0.0 mm 0.02 in0.5 mm
01:00 PM 83.5°F28.6°C 73.9°F23.3°C 73% 1.1 mph S1.8 kmh S 5.0 mph8.0 kmh 29.74 in1007.1 mb 0.01 in0.3 mm 0.00 in0.0 mm 0.02 in0.5 mm
01:05 PM 83.4°F28.6°C 72.6°F22.6°C 70% 1.4 mph SSE2.3 kmh SSE 5.0 mph8.0 kmh 29.74 in1007.1 mb 0.00 in0.0 mm 0.00 in0.0 mm 0.02 in0.5 mm
01:10 PM 83.7°F28.7°C 73.7°F23.2°C 72% 1.1 mph S1.8 kmh S 3.0 mph4.8 kmh 29.74 in1007.1 mb 0.00 in0.0 mm 0.00 in0.0 mm 0.02 in0.5 mm
01:15 PM 84.6°F29.2°C 73.7°F23.2°C 70% 1.1 mph SSE1.8 kmh SSE 5.0 mph8.0 kmh 29.74 in1007.1 mb 0.00 in0.0 mm 0.00 in0.0 mm 0.02 in0.5 mm
01:20 PM 84.9°F29.4°C 73.1°F22.8°C 68% 2.1 mph SSW3.4 kmh SSW 6.0 mph9.7 kmh 29.73 in1006.8 mb 0.00 in0.0 mm 0.00 in0.0 mm 0.02 in0.5 mm
01:25 PM 84.7°F29.3°C 71.6°F22.0°C 65% 2.9 mph SW4.7 kmh SW 7.0 mph11.3 kmh 29.74 in1007.1 mb 0.00 in0.0 mm 0.00 in0.0 mm 0.02 in0.5 mm
01:30 PM 85.1°F29.5°C 71.5°F21.9°C 64% 1.1 mph SSE1.8 kmh SSE 7.0 mph11.3 kmh 29.73 in1006.8 mb 0.00 in0.0 mm 0.00 in0.0 mm 0.02 in0.5 mm
01:35 PM 85.4°F29.7°C 67.4°F19.7°C 55% 1.1 mph S1.8 kmh S 3.0 mph4.8 kmh 29.73 in1006.8 mb 0.00 in0.0 mm 0.00 in0.0 mm 0.02 in0.5 mm
01:40 PM 85.7°F29.8°C 66.6°F19.2°C 53% 1.7 mph S2.7 kmh S 4.0 mph6.4 kmh 29.73 in1006.8 mb 0.00 in0.0 mm 0.00 in0.0 mm 0.02 in0.5 mm
01:45 PM 86.2°F30.1°C 65.3°F18.5°C 50% 1.1 mph SSW1.8 kmh SSW 4.0 mph6.4 kmh 29.73 in1006.8 mb 0.00 in0.0 mm 0.00 in0.0 mm 0.02 in0.5 mm
01:50 PM 86.5°F30.3°C 66.8°F19.3°C 52% 3.8 mph N6.1 kmh N 8.0 mph12.9 kmh 29.73 in1006.8 mb 0.00 in0.0 mm 0.00 in0.0 mm 0.02 in0.5 mm
01:55 PM 87.0°F30.6°C 66.6°F19.2°C 51% 2.5 mph NE4.0 kmh NE 8.0 mph12.9 kmh 29.72 in1006.4 mb 0.00 in0.0 mm 0.00 in0.0 mm 0.02 in0.5 mm
02:00 PM 87.1°F30.6°C 63.1°F17.3°C 45% 2.8 mph NE4.5 kmh NE 8.0 mph12.9 kmh 29.72 in1006.4 mb 0.00 in0.0 mm 0.00 in0.0 mm 0.02 in0.5 mm
02:05 PM 87.4°F30.8°C 64.7°F18.2°C 47% 2.7 mph N4.3 kmh N 8.0 mph12.9 kmh 29.72 in1006.4 mb 0.00 in0.0 mm 0.00 in0.0 mm 0.02 in0.5 mm
02:10 PM 87.1°F30.6°C 61.9°F16.6°C 43% 2.9 mph NNE4.7 kmh NNE 6.0 mph9.7 kmh 29.72 in1006.4 mb 0.00 in0.0 mm 0.00 in0.0 mm 0.02 in0.5 mm
02:15 PM 87.4°F30.8°C 63.4°F17.4°C 45% 1.9 mph SW3.1 kmh SW 7.0 mph11.3 kmh 29.72 in1006.4 mb 0.00 in0.0 mm 0.00 in0.0 mm 0.02 in0.5 mm
02:20 PM 87.7°F30.9°C 61.0°F16.1°C 41% 2.2 mph WNW3.5 kmh WNW 7.0 mph11.3 kmh 29.72 in1006.4 mb 0.00 in0.0 mm 0.00 in0.0 mm 0.02 in0.5 mm
02:25 PM 88.5°F31.4°C 59.6°F15.3°C 38% 3.4 mph NE5.5 kmh NE 8.0 mph12.9 kmh 29.71 in1006.1 mb 0.00 in0.0 mm 0.00 in0.0 mm 0.02 in0.5 mm
02:30 PM 88.2°F31.2°C 60.8°F16.0°C 40% 3.5 mph NNE5.6 kmh NNE 8.0 mph12.9 kmh 29.71 in1006.1 mb 0.00 in0.0 mm 0.00 in0.0 mm 0.02 in0.5 mm
02:35 PM 87.8°F31.0°C 60.4°F15.8°C 40% 4.2 mph NE6.8 kmh NE 7.0 mph11.3 kmh 29.71 in1006.1 mb 0.00 in0.0 mm 0.00 in0.0 mm 0.02 in0.5 mm
02:40 PM 86.7°F30.4°C 60.8°F16.0°C 42% 2.9 mph NNE4.7 kmh NNE 7.0 mph11.3 kmh 29.71 in1006.1 mb 0.00 in0.0 mm 0.00 in0.0 mm 0.02 in0.5 mm
02:45 PM 86.6°F30.3°C 61.4°F16.3°C 43% 2.5 mph NE4.0 kmh NE 6.0 mph9.7 kmh 29.70 in1005.8 mb 0.00 in0.0 mm 0.00 in0.0 mm 0.02 in0.5 mm
02:50 PM 87.7°F30.9°C 61.7°F16.5°C 42% 1.1 mph NNE1.8 kmh NNE 5.0 mph8.0 kmh 29.69 in1005.4 mb 0.00 in0.0 mm 0.00 in0.0 mm 0.02 in0.5 mm
02:55 PM 88.0°F31.1°C 60.6°F15.9°C 40% 2.3 mph NE3.7 kmh NE 7.0 mph11.3 kmh 29.70 in1005.8 mb 0.00 in0.0 mm 0.00 in0.0 mm 0.02 in0.5 mm
03:00 PM 88.5°F31.4°C 61.1°F16.2°C 40% 4.6 mph N7.4 kmh N 10.0 mph16.1 kmh 29.69 in1005.4 mb 0.00 in0.0 mm 0.00 in0.0 mm 0.02 in0.5 mm
03:05 PM 88.6°F31.4°C 59.7°F15.4°C 38% 2.9 mph NW4.7 kmh NW 10.0 mph16.1 kmh 29.69 in1005.4 mb 0.00 in0.0 mm 0.00 in0.0 mm 0.02 in0.5 mm
03:10 PM 88.6°F31.4°C 59.0°F15.0°C 37% 3.8 mph NNW6.1 kmh NNW 7.0 mph11.3 kmh 29.69 in1005.4 mb 0.00 in0.0 mm 0.00 in0.0 mm 0.02 in0.5 mm
03:15 PM 88.6°F31.4°C 56.6°F13.7°C 34% 2.3 mph NNW3.7 kmh NNW 7.0 mph11.3 kmh 29.68 in1005.1 mb 0.00 in0.0 mm 0.00 in0.0 mm 0.02 in0.5 mm
03:20 PM 89.5°F31.9°C 60.5°F15.8°C 38% 3.4 mph NNW5.5 kmh NNW 8.0 mph12.9 kmh 29.68 in1005.1 mb 0.00 in0.0 mm 0.00 in0.0 mm 0.02 in0.5 mm
03:25 PM 89.1°F31.7°C 58.6°F14.8°C 36% 4.8 mph NNW7.7 kmh NNW 8.0 mph12.9 kmh 29.68 in1005.1 mb 0.00 in0.0 mm 0.00 in0.0 mm 0.02 in0.5 mm
03:30 PM 88.9°F31.6°C 59.2°F15.1°C 37% 3.5 mph NNE5.6 kmh NNE 7.0 mph11.3 kmh 29.68 in1005.1 mb 0.00 in0.0 mm 0.00 in0.0 mm 0.02 in0.5 mm
03:35 PM 89.1°F31.7°C 57.8°F14.3°C 35% 3.2 mph NE5.1 kmh NE 7.0 mph11.3 kmh 29.68 in1005.1 mb 0.00 in0.0 mm 0.00 in0.0 mm 0.02 in0.5 mm
03:40 PM 89.6°F32.0°C 59.1°F15.1°C 36% 3.6 mph N5.8 kmh N 8.0 mph12.9 kmh 29.68 in1005.1 mb 0.00 in0.0 mm 0.00 in0.0 mm 0.02 in0.5 mm
03:45 PM 89.7°F32.1°C 59.9°F15.5°C 37% 4.0 mph N6.4 kmh N 8.0 mph12.9 kmh 29.68 in1005.1 mb 0.00 in0.0 mm 0.00 in0.0 mm 0.02 in0.5 mm
03:50 PM 88.4°F31.3°C 58.0°F14.4°C 36% 5.1 mph NNE8.2 kmh NNE 10.0 mph16.1 kmh 29.68 in1005.1 mb 0.00 in0.0 mm 0.00 in0.0 mm 0.02 in0.5 mm
03:55 PM 88.2°F31.2°C 57.8°F14.3°C 36% 3.7 mph NE6.0 kmh NE 10.0 mph16.1 kmh 29.68 in1005.1 mb 0.00 in0.0 mm 0.00 in0.0 mm 0.02 in0.5 mm
04:00 PM 88.2°F31.2°C 57.8°F14.3°C 36% 2.6 mph NE4.2 kmh NE 7.0 mph11.3 kmh 29.68 in1005.1 mb 0.00 in0.0 mm 0.00 in0.0 mm 0.02 in0.5 mm
04:05 PM 88.5°F31.4°C 59.6°F15.3°C 38% 2.7 mph NNE4.3 kmh NNE 5.0 mph8.0 kmh 29.68 in1005.1 mb 0.00 in0.0 mm 0.00 in0.0 mm 0.02 in0.5 mm
04:10 PM 87.9°F31.1°C 57.6°F14.2°C 36% 3.3 mph NE5.3 kmh NE 6.0 mph9.7 kmh 29.68 in1005.1 mb 0.00 in0.0 mm 0.00 in0.0 mm 0.02 in0.5 mm
04:15 PM 87.6°F30.9°C 61.0°F16.1°C 41% 1.9 mph NNW3.1 kmh NNW 6.0 mph9.7 kmh 29.68 in1005.1 mb 0.00 in0.0 mm 0.00 in0.0 mm 0.02 in0.5 mm
04:20 PM 87.5°F30.8°C 58.0°F14.4°C 37% 1.6 mph N2.6 kmh N 3.0 mph4.8 kmh 29.68 in1005.1 mb 0.00 in0.0 mm 0.00 in0.0 mm 0.02 in0.5 mm
04:25 PM 87.8°F31.0°C 59.0°F15.0°C 38% 0.8 mph NE1.3 kmh NE 4.0 mph6.4 kmh 29.68 in1005.1 mb 0.00 in0.0 mm 0.00 in0.0 mm 0.02 in0.5 mm
04:30 PM 87.8°F31.0°C 59.0°F15.0°C 38% 1.6 mph NE2.6 kmh NE 4.0 mph6.4 kmh 29.68 in1005.1 mb 0.00 in0.0 mm 0.00 in0.0 mm 0.02 in0.5 mm
04:35 PM 88.1°F31.2°C 59.3°F15.2°C 38% 0.6 mph NE1.0 kmh NE 3.0 mph4.8 kmh 29.67 in1004.7 mb 0.00 in0.0 mm 0.00 in0.0 mm 0.02 in0.5 mm
04:40 PM 88.0°F31.1°C 59.2°F15.1°C 38% 2.2 mph N3.5 kmh N 5.0 mph8.0 kmh 29.67 in1004.7 mb 0.00 in0.0 mm 0.00 in0.0 mm 0.02 in0.5 mm
04:45 PM 87.6°F30.9°C 61.0°F16.1°C 41% 1.2 mph N1.9 kmh N 5.0 mph8.0 kmh 29.67 in1004.7 mb 0.00 in0.0 mm 0.00 in0.0 mm 0.02 in0.5 mm
04:50 PM 88.4°F31.3°C 63.0°F17.2°C 43% 1.4 mph N2.3 kmh N 3.0 mph4.8 kmh 29.67 in1004.7 mb 0.00 in0.0 mm 0.00 in0.0 mm 0.02 in0.5 mm
04:55 PM 88.6°F31.4°C 61.1°F16.2°C 40% 2.4 mph WSW3.9 kmh WSW 6.0 mph9.7 kmh 29.67 in1004.7 mb 0.00 in0.0 mm 0.00 in0.0 mm 0.02 in0.5 mm
05:00 PM 88.1°F31.2°C 62.1°F16.7°C 42% 1.6 mph W2.6 kmh W 6.0 mph9.7 kmh 29.67 in1004.7 mb 0.00 in0.0 mm 0.00 in0.0 mm 0.02 in0.5 mm
05:05 PM 87.5°F30.8°C 58.7°F14.8°C 38% 0.7 mph W1.1 kmh W 4.0 mph6.4 kmh 29.67 in1004.7 mb 0.00 in0.0 mm 0.00 in0.0 mm 0.02 in0.5 mm
05:10 PM 87.4°F30.8°C 60.8°F16.0°C 41% 2.1 mph N3.4 kmh N 5.0 mph8.0 kmh 29.67 in1004.7 mb 0.00 in0.0 mm 0.00 in0.0 mm 0.02 in0.5 mm
05:15 PM 87.9°F31.1°C 61.9°F16.6°C 42% 2.6 mph N4.2 kmh N 6.0 mph9.7 kmh 29.67 in1004.7 mb 0.00 in0.0 mm 0.00 in0.0 mm 0.02 in0.5 mm
05:20 PM 88.0°F31.1°C 60.6°F15.9°C 40% 3.3 mph N5.3 kmh N 6.0 mph9.7 kmh 29.67 in1004.7 mb 0.00 in0.0 mm 0.00 in0.0 mm 0.02 in0.5 mm
05:25 PM 88.4°F31.3°C 59.5°F15.3°C 38% 3.1 mph NNE5.0 kmh NNE 5.0 mph8.0 kmh 29.66 in1004.4 mb 0.00 in0.0 mm 0.00 in0.0 mm 0.02 in0.5 mm
05:30 PM 88.0°F31.1°C 59.9°F15.5°C 39% 2.9 mph N4.7 kmh N 6.0 mph9.7 kmh 29.66 in1004.4 mb 0.00 in0.0 mm 0.00 in0.0 mm 0.02 in0.5 mm
05:35 PM 87.3°F30.7°C 60.7°F15.9°C 41% 3.3 mph NW5.3 kmh NW 9.0 mph14.5 kmh 29.66 in1004.4 mb 0.00 in0.0 mm 0.00 in0.0 mm 0.02 in0.5 mm
05:40 PM 86.7°F30.4°C 59.5°F15.3°C 40% 3.3 mph N5.3 kmh N 9.0 mph14.5 kmh 29.66 in1004.4 mb 0.00 in0.0 mm 0.00 in0.0 mm 0.02 in0.5 mm
05:45 PM 86.5°F30.3°C 57.8°F14.3°C 38% 2.8 mph NNW4.5 kmh NNW 7.0 mph11.3 kmh 29.66 in1004.4 mb 0.00 in0.0 mm 0.00 in0.0 mm 0.02 in0.5 mm
05:50 PM 86.5°F30.3°C 60.0°F15.6°C 41% 2.3 mph NW3.7 kmh NW 5.0 mph8.0 kmh 29.66 in1004.4 mb 0.00 in0.0 mm 0.00 in0.0 mm 0.02 in0.5 mm
05:55 PM 86.5°F30.3°C 59.3°F15.2°C 40% 1.9 mph NNW3.1 kmh NNW 4.0 mph6.4 kmh 29.66 in1004.4 mb 0.00 in0.0 mm 0.00 in0.0 mm 0.02 in0.5 mm
06:00 PM 86.8°F30.4°C 59.5°F15.3°C 40% 2.2 mph NNW3.5 kmh NNW 5.0 mph8.0 kmh 29.66 in1004.4 mb 0.00 in0.0 mm 0.00 in0.0 mm 0.02 in0.5 mm
06:05 PM 86.8°F30.4°C 58.8°F14.9°C 39% 3.5 mph NW5.6 kmh NW 7.0 mph11.3 kmh 29.66 in1004.4 mb 0.00 in0.0 mm 0.00 in0.0 mm 0.02 in0.5 mm
06:10 PM 86.6°F30.3°C 59.4°F15.2°C 40% 3.4 mph NW5.5 kmh NW 7.0 mph11.3 kmh 29.66 in1004.4 mb 0.00 in0.0 mm 0.00 in0.0 mm 0.02 in0.5 mm
06:15 PM 86.2°F30.1°C 59.7°F15.4°C 41% 2.4 mph N3.9 kmh N 6.0 mph9.7 kmh 29.66 in1004.4 mb 0.00 in0.0 mm 0.00 in0.0 mm 0.02 in0.5 mm
06:20 PM 86.1°F30.1°C 60.3°F15.7°C 42% 2.8 mph NNW4.5 kmh NNW 6.0 mph9.7 kmh 29.66 in1004.4 mb 0.00 in0.0 mm 0.00 in0.0 mm 0.02 in0.5 mm
06:25 PM 85.8°F29.9°C 59.3°F15.2°C 41% 2.5 mph NNW4.0 kmh NNW 6.0 mph9.7 kmh 29.66 in1004.4 mb 0.00 in0.0 mm 0.00 in0.0 mm 0.02 in0.5 mm
06:30 PM 85.9°F29.9°C 59.4°F15.2°C 41% 3.6 mph NNW5.8 kmh NNW 7.0 mph11.3 kmh 29.66 in1004.4 mb 0.00 in0.0 mm 0.00 in0.0 mm 0.02 in0.5 mm
06:35 PM 86.2°F30.1°C 59.0°F15.0°C 40% 4.3 mph NNW6.9 kmh NNW 8.0 mph12.9 kmh 29.66 in1004.4 mb 0.00 in0.0 mm 0.00 in0.0 mm 0.02 in0.5 mm
06:40 PM 86.1°F30.1°C 60.3°F15.7°C 42% 3.8 mph NNW6.1 kmh NNW 8.0 mph12.9 kmh 29.66 in1004.4 mb 0.00 in0.0 mm 0.00 in0.0 mm 0.02 in0.5 mm
06:45 PM 85.9°F29.9°C 59.4°F15.2°C 41% 5.2 mph N8.4 kmh N 9.0 mph14.5 kmh 29.66 in1004.4 mb 0.00 in0.0 mm 0.00 in0.0 mm 0.02 in0.5 mm
06:50 PM 85.4°F29.7°C 60.3°F15.7°C 43% 4.6 mph N7.4 kmh N 9.0 mph14.5 kmh 29.66 in1004.4 mb 0.00 in0.0 mm 0.00 in0.0 mm 0.02 in0.5 mm
06:55 PM 85.3°F29.6°C 60.2°F15.7°C 43% 6.1 mph N9.8 kmh N 11.0 mph17.7 kmh 29.67 in1004.7 mb 0.00 in0.0 mm 0.00 in0.0 mm 0.02 in0.5 mm
07:00 PM 85.1°F29.5°C 60.7°F15.9°C 44% 5.5 mph NNE8.9 kmh NNE 11.0 mph17.7 kmh 29.66 in1004.4 mb 0.00 in0.0 mm 0.00 in0.0 mm 0.02 in0.5 mm
07:05 PM 85.1°F29.5°C 61.3°F16.3°C 45% 5.3 mph NNE8.5 kmh NNE 10.0 mph16.1 kmh 29.66 in1004.4 mb 0.00 in0.0 mm 0.00 in0.0 mm 0.02 in0.5 mm
07:10 PM 85.0°F29.4°C 61.2°F16.2°C 45% 5.6 mph NNE9.0 kmh NNE 12.0 mph19.3 kmh 29.67 in1004.7 mb 0.00 in0.0 mm 0.00 in0.0 mm 0.02 in0.5 mm
07:15 PM 83.6°F28.7°C 63.0°F17.2°C 50% 8.2 mph NE13.2 kmh NE 14.0 mph22.5 kmh 29.67 in1004.7 mb 0.00 in0.0 mm 0.00 in0.0 mm 0.02 in0.5 mm
07:20 PM 82.0°F27.8°C 63.7°F17.6°C 54% 6.8 mph ENE10.9 kmh ENE 14.0 mph22.5 kmh 29.68 in1005.1 mb 0.00 in0.0 mm 0.00 in0.0 mm 0.02 in0.5 mm
07:25 PM 80.8°F27.1°C 64.1°F17.8°C 57% 6.4 mph NE10.3 kmh NE 13.0 mph20.9 kmh 29.68 in1005.1 mb 0.00 in0.0 mm 0.00 in0.0 mm 0.02 in0.5 mm
07:30 PM 80.0°F26.7°C 64.4°F18.0°C 59% 7.4 mph NE11.9 kmh NE 13.0 mph20.9 kmh 29.68 in1005.1 mb 0.00 in0.0 mm 0.00 in0.0 mm 0.02 in0.5 mm
07:35 PM 79.5°F26.4°C 64.8°F18.2°C 61% 6.7 mph ENE10.8 kmh ENE 13.0 mph20.9 kmh 29.68 in1005.1 mb 0.00 in0.0 mm 0.00 in0.0 mm 0.02 in0.5 mm
07:40 PM 79.1°F26.2°C 64.9°F18.3°C 62% 5.9 mph ENE9.5 kmh ENE 13.0 mph20.9 kmh 29.68 in1005.1 mb 0.00 in0.0 mm 0.00 in0.0 mm 0.02 in0.5 mm
07:45 PM 78.8°F26.0°C 64.7°F18.2°C 62% 5.1 mph ENE8.2 kmh ENE 13.0 mph20.9 kmh 29.68 in1005.1 mb 0.00 in0.0 mm 0.00 in0.0 mm 0.02 in0.5 mm
07:50 PM 78.7°F25.9°C 64.6°F18.1°C 62% 4.4 mph ENE7.1 kmh ENE 9.0 mph14.5 kmh 29.68 in1005.1 mb 0.00 in0.0 mm 0.00 in0.0 mm 0.02 in0.5 mm
07:55 PM 78.5°F25.8°C 64.4°F18.0°C 62% 5.2 mph NE8.4 kmh NE 9.0 mph14.5 kmh 29.69 in1005.4 mb 0.00 in0.0 mm 0.00 in0.0 mm 0.02 in0.5 mm
08:00 PM 78.4°F25.8°C 64.3°F17.9°C 62% 4.7 mph NE7.6 kmh NE 10.0 mph16.1 kmh 29.70 in1005.8 mb 0.00 in0.0 mm 0.00 in0.0 mm 0.02 in0.5 mm
08:05 PM 78.2°F25.7°C 64.1°F17.8°C 62% 4.3 mph NNE6.9 kmh NNE 10.0 mph16.1 kmh 29.71 in1006.1 mb 0.00 in0.0 mm 0.00 in0.0 mm 0.02 in0.5 mm
08:10 PM 78.2°F25.7°C 64.1°F17.8°C 62% 4.9 mph N7.9 kmh N 10.0 mph16.1 kmh 29.72 in1006.4 mb 0.00 in0.0 mm 0.00 in0.0 mm 0.02 in0.5 mm
08:15 PM 77.2°F25.1°C 64.9°F18.3°C 66% 6.4 mph NW10.3 kmh NW 12.0 mph19.3 kmh 29.72 in1006.4 mb 0.00 in0.0 mm 0.00 in0.0 mm 0.02 in0.5 mm
08:20 PM 75.0°F23.9°C 64.5°F18.1°C 70% 4.2 mph NW6.8 kmh NW 12.0 mph19.3 kmh 29.72 in1006.4 mb 0.01 in0.3 mm 0.12 in3.0 mm 0.03 in0.8 mm
08:25 PM 74.2°F23.4°C 65.0°F18.3°C 73% 2.5 mph NNW4.0 kmh NNW 9.0 mph14.5 kmh 29.72 in1006.4 mb 0.01 in0.3 mm 0.00 in0.0 mm 0.03 in0.8 mm
08:30 PM 73.9°F23.3°C 65.5°F18.6°C 75% 1.4 mph NW2.3 kmh NW 4.0 mph6.4 kmh 29.72 in1006.4 mb 0.01 in0.3 mm 0.00 in0.0 mm 0.03 in0.8 mm
08:35 PM 73.9°F23.3°C 65.5°F18.6°C 75% 1.6 mph NE2.6 kmh NE 4.0 mph6.4 kmh 29.72 in1006.4 mb 0.01 in0.3 mm 0.00 in0.0 mm 0.03 in0.8 mm
08:40 PM 73.7°F23.2°C 66.0°F18.9°C 77% 0.3 mph NE0.5 kmh NE 4.0 mph6.4 kmh 29.72 in1006.4 mb 0.01 in0.3 mm 0.00 in0.0 mm 0.03 in0.8 mm
08:45 PM 73.7°F23.2°C 66.4°F19.1°C 78% Calm Calm 2.0 mph3.2 kmh 29.72 in1006.4 mb 0.01 in0.3 mm 0.00 in0.0 mm 0.03 in0.8 mm
08:50 PM 73.5°F23.1°C 66.6°F19.2°C 79% Calm Calm -- 29.72 in1006.4 mb 0.01 in0.3 mm 0.00 in0.0 mm 0.03 in0.8 mm
08:55 PM 73.5°F23.1°C 66.9°F19.4°C 80% 0.4 mph NE0.6 kmh NE 2.0 mph3.2 kmh 29.73 in1006.8 mb 0.01 in0.3 mm 0.00 in0.0 mm 0.03 in0.8 mm
09:00 PM 74.0°F23.3°C 66.7°F19.3°C 78% 0.5 mph NE0.8 kmh NE 2.0 mph3.2 kmh 29.73 in1006.8 mb 0.01 in0.3 mm 0.00 in0.0 mm 0.03 in0.8 mm
09:05 PM 74.5°F23.6°C 66.0°F18.9°C 75% 0.8 mph NE1.3 kmh NE 4.0 mph6.4 kmh 29.73 in1006.8 mb 0.01 in0.3 mm 0.00 in0.0 mm 0.03 in0.8 mm
09:10 PM 74.8°F23.8°C 65.6°F18.7°C 73% 1.0 mph ENE1.6 kmh ENE 4.0 mph6.4 kmh 29.73 in1006.8 mb 0.01 in0.3 mm 0.00 in0.0 mm 0.03 in0.8 mm
09:15 PM 75.1°F23.9°C 65.4°F18.6°C 72% 1.3 mph ENE2.1 kmh ENE 4.0 mph6.4 kmh 29.74 in1007.1 mb 0.01 in0.3 mm 0.00 in0.0 mm 0.03 in0.8 mm
09:20 PM 75.3°F24.1°C 65.2°F18.4°C 71% 2.3 mph NE3.7 kmh NE 8.0 mph12.9 kmh 29.74 in1007.1 mb 0.00 in0.0 mm 0.00 in0.0 mm 0.03 in0.8 mm
09:25 PM 75.2°F24.0°C 64.7°F18.2°C 70% 2.0 mph ENE3.2 kmh ENE 8.0 mph12.9 kmh 29.74 in1007.1 mb 0.00 in0.0 mm 0.00 in0.0 mm 0.03 in0.8 mm
09:30 PM 75.1°F23.9°C 63.8°F17.7°C 68% 1.6 mph E2.6 kmh E 6.0 mph9.7 kmh 29.74 in1007.1 mb 0.00 in0.0 mm 0.00 in0.0 mm 0.03 in0.8 mm
09:35 PM 75.0°F23.9°C 63.7°F17.6°C 68% 1.8 mph E2.9 kmh E 5.0 mph8.0 kmh 29.74 in1007.1 mb 0.00 in0.0 mm 0.00 in0.0 mm 0.03 in0.8 mm
09:40 PM 74.8°F23.8°C 63.5°F17.5°C 68% 2.0 mph E3.2 kmh E 4.0 mph6.4 kmh 29.75 in1007.5 mb 0.00 in0.0 mm 0.00 in0.0 mm 0.03 in0.8 mm
09:45 PM 74.7°F23.7°C 63.4°F17.4°C 68% 2.3 mph E3.7 kmh E 6.0 mph9.7 kmh 29.75 in1007.5 mb 0.00 in0.0 mm 0.00 in0.0 mm 0.03 in0.8 mm
09:50 PM 74.5°F23.6°C 63.6°F17.6°C 69% 1.6 mph ENE2.6 kmh ENE 6.0 mph9.7 kmh 29.75 in1007.5 mb 0.00 in0.0 mm 0.00 in0.0 mm 0.03 in0.8 mm
09:55 PM 74.1°F23.4°C 63.7°F17.6°C 70% 1.2 mph ENE1.9 kmh ENE 4.0 mph6.4 kmh 29.75 in1007.5 mb 0.00 in0.0 mm 0.00 in0.0 mm 0.03 in0.8 mm
10:00 PM 73.8°F23.2°C 63.4°F17.4°C 70% 1.6 mph ENE2.6 kmh ENE 3.0 mph4.8 kmh 29.75 in1007.5 mb 0.00 in0.0 mm 0.00 in0.0 mm 0.03 in0.8 mm
10:05 PM 73.7°F23.2°C 63.7°F17.6°C 71% 1.7 mph ENE2.7 kmh ENE 3.0 mph4.8 kmh 29.75 in1007.5 mb 0.00 in0.0 mm 0.00 in0.0 mm 0.03 in0.8 mm
10:10 PM 73.7°F23.2°C 63.7°F17.6°C 71% 1.2 mph ENE1.9 kmh ENE 3.0 mph4.8 kmh 29.75 in1007.5 mb 0.00 in0.0 mm 0.00 in0.0 mm 0.03 in0.8 mm
10:15 PM 73.8°F23.2°C 63.8°F17.7°C 71% 1.8 mph ENE2.9 kmh ENE 4.0 mph6.4 kmh 29.75 in1007.5 mb 0.00 in0.0 mm 0.00 in0.0 mm 0.03 in0.8 mm
10:20 PM 73.9°F23.3°C 63.9°F17.7°C 71% 2.4 mph E3.9 kmh E 6.0 mph9.7 kmh 29.75 in1007.5 mb 0.00 in0.0 mm 0.00 in0.0 mm 0.03 in0.8 mm
10:25 PM 73.9°F23.3°C 63.9°F17.7°C 71% 1.9 mph E3.1 kmh E 6.0 mph9.7 kmh 29.75 in1007.5 mb 0.00 in0.0 mm 0.00 in0.0 mm 0.03 in0.8 mm
10:30 PM 73.8°F23.2°C 63.8°F17.7°C 71% 1.9 mph E3.1 kmh E 5.0 mph8.0 kmh 29.75 in1007.5 mb 0.00 in0.0 mm 0.00 in0.0 mm 0.03 in0.8 mm
10:35 PM 73.7°F23.2°C 63.7°F17.6°C 71% 2.3 mph E3.7 kmh E 7.0 mph11.3 kmh 29.75 in1007.5 mb 0.00 in0.0 mm 0.00 in0.0 mm 0.03 in0.8 mm
10:40 PM 73.7°F23.2°C 63.7°F17.6°C 71% 2.4 mph E3.9 kmh E 7.0 mph11.3 kmh 29.75 in1007.5 mb 0.00 in0.0 mm 0.00 in0.0 mm 0.03 in0.8 mm
10:45 PM 73.6°F23.1°C 63.6°F17.6°C 71% 2.2 mph E3.5 kmh E 6.0 mph9.7 kmh 29.75 in1007.5 mb 0.00 in0.0 mm 0.00 in0.0 mm 0.03 in0.8 mm
10:50 PM 73.5°F23.1°C 63.9°F17.7°C 72% 1.6 mph E2.6 kmh E 5.0 mph8.0 kmh 29.75 in1007.5 mb 0.00 in0.0 mm 0.00 in0.0 mm 0.03 in0.8 mm
10:55 PM 73.2°F22.9°C 63.6°F17.6°C 72% 1.4 mph E2.3 kmh E 5.0 mph8.0 kmh 29.75 in1007.5 mb 0.00 in0.0 mm 0.00 in0.0 mm 0.03 in0.8 mm
11:00 PM 73.1°F22.8°C 63.5°F17.5°C 72% 1.6 mph E2.6 kmh E 5.0 mph8.0 kmh 29.75 in1007.5 mb 0.00 in0.0 mm 0.00 in0.0 mm 0.03 in0.8 mm
11:05 PM 73.1°F22.8°C 63.5°F17.5°C 72% 1.1 mph E1.8 kmh E 3.0 mph4.8 kmh 29.75 in1007.5 mb 0.00 in0.0 mm 0.00 in0.0 mm 0.03 in0.8 mm
11:10 PM 73.1°F22.8°C 63.9°F17.7°C 73% 1.5 mph E2.4 kmh E 3.0 mph4.8 kmh 29.75 in1007.5 mb 0.00 in0.0 mm 0.00 in0.0 mm 0.03 in0.8 mm
11:15 PM 73.0°F22.8°C 63.8°F17.7°C 73% 1.1 mph E1.8 kmh E 3.0 mph4.8 kmh 29.75 in1007.5 mb 0.00 in0.0 mm 0.00 in0.0 mm 0.03 in0.8 mm
11:20 PM 72.9°F22.7°C 63.7°F17.6°C 73% 1.3 mph E2.1 kmh E 3.0 mph4.8 kmh 29.75 in1007.5 mb 0.00 in0.0 mm 0.00 in0.0 mm 0.03 in0.8 mm
11:25 PM 72.8°F22.7°C 63.6°F17.6°C 73% 1.4 mph E2.3 kmh E 3.0 mph4.8 kmh 29.75 in1007.5 mb 0.00 in0.0 mm 0.00 in0.0 mm 0.03 in0.8 mm
11:30 PM 72.5°F22.5°C 63.7°F17.6°C 74% 0.8 mph E1.3 kmh E 3.0 mph4.8 kmh 29.75 in1007.5 mb 0.00 in0.0 mm 0.00 in0.0 mm 0.03 in0.8 mm
11:35 PM 72.4°F22.4°C 63.6°F17.6°C 74% 0.5 mph E0.8 kmh E 2.0 mph3.2 kmh 29.75 in1007.5 mb 0.00 in0.0 mm 0.00 in0.0 mm 0.03 in0.8 mm
11:40 PM 72.3°F22.4°C 63.5°F17.5°C 74% 0.2 mph E0.3 kmh E 2.0 mph3.2 kmh 29.75 in1007.5 mb 0.00 in0.0 mm 0.00 in0.0 mm 0.03 in0.8 mm
11:45 PM 72.2°F22.3°C 63.4°F17.4°C 74% Calm Calm 1.0 mph1.6 kmh 29.75 in1007.5 mb 0.00 in0.0 mm 0.00 in0.0 mm 0.03 in0.8 mm
11:50 PM 71.7°F22.1°C 63.3°F17.4°C 75% Calm Calm 1.0 mph1.6 kmh 29.75 in1007.5 mb 0.00 in0.0 mm 0.00 in0.0 mm 0.03 in0.8 mm
11:55 PM 71.1°F21.7°C 63.1°F17.3°C 76% Calm Calm -- 29.75 in1007.5 mb 0.00 in0.0 mm 0.00 in0.0 mm 0.03 in0.8 mm